createdAt,value
2023-12-20T00:00:26.159Z,21.17
2023-12-20T00:01:26.327Z,21.14
2023-12-20T00:02:26.258Z,21.14
2023-12-20T00:03:26.287Z,21.17
2023-12-20T00:04:26.397Z,21.17
2023-12-20T00:05:26.395Z,21.17
2023-12-20T00:06:26.455Z,21.17
2023-12-20T00:07:26.563Z,21.19
2023-12-20T00:08:26.522Z,21.14
2023-12-20T00:09:26.603Z,21.15
2023-12-20T00:10:26.748Z,21.17
2023-12-20T00:11:26.702Z,21.15
2023-12-20T00:12:26.757Z,21.14
2023-12-20T00:13:26.823Z,21.14
2023-12-20T00:14:26.845Z,21.15
2023-12-20T00:15:26.957Z,21.19
2023-12-20T00:16:26.981Z,21.11
2023-12-20T00:17:27.130Z,21.14
2023-12-20T00:18:27.045Z,21.23
2023-12-20T00:19:27.226Z,21.13
2023-12-20T00:20:27.170Z,21.17
2023-12-20T00:21:27.203Z,21.15
2023-12-20T00:22:27.242Z,21.15
2023-12-20T00:23:27.291Z,21.20
2023-12-20T00:24:27.363Z,21.12
2023-12-20T00:25:27.400Z,21.14
2023-12-20T00:26:27.487Z,21.14
2023-12-20T00:27:27.510Z,21.12
2023-12-20T00:28:27.660Z,21.17
2023-12-20T00:29:27.648Z,21.17
2023-12-20T00:30:27.696Z,21.11
2023-12-20T00:31:27.895Z,21.14
2023-12-20T00:32:27.842Z,21.19
2023-12-20T00:33:27.880Z,21.13
2023-12-20T00:34:27.955Z,21.15
2023-12-20T00:35:27.935Z,21.19
2023-12-20T00:36:27.997Z,21.14
2023-12-20T00:37:28.036Z,21.14
2023-12-20T00:38:28.123Z,21.12
2023-12-20T00:39:28.183Z,21.19
2023-12-20T00:40:28.278Z,21.19
2023-12-20T00:41:28.284Z,21.14
2023-12-20T00:42:28.345Z,21.17
2023-12-20T00:43:28.454Z,21.11
2023-12-20T00:44:28.446Z,21.14
2023-12-20T00:45:28.528Z,21.19
2023-12-20T00:46:28.571Z,21.17
2023-12-20T00:47:28.645Z,21.15
2023-12-20T00:48:28.685Z,21.21
2023-12-20T00:49:28.831Z,21.20
2023-12-20T00:50:30.531Z,21.21
2023-12-20T00:51:28.861Z,21.21
2023-12-20T00:52:28.922Z,21.18
2023-12-20T00:53:28.986Z,21.26
2023-12-20T00:54:29.039Z,21.24
2023-12-20T00:55:29.139Z,21.18
2023-12-20T00:56:29.221Z,21.20
2023-12-20T00:57:29.300Z,21.21
2023-12-20T00:58:29.432Z,21.20
2023-12-20T00:59:29.441Z,21.21
2023-12-20T01:00:29.466Z,21.26
2023-12-20T01:01:29.638Z,21.20
2023-12-20T01:02:29.513Z,21.24
2023-12-20T01:03:29.574Z,21.24
2023-12-20T01:04:29.701Z,21.24
2023-12-20T01:05:29.765Z,21.20
2023-12-20T01:06:29.784Z,21.23
2023-12-20T01:07:29.804Z,21.23
2023-12-20T01:08:29.852Z,21.27
2023-12-20T01:09:29.954Z,21.19
2023-12-20T01:10:30.028Z,21.27
2023-12-20T01:11:30.079Z,21.27
2023-12-20T01:12:30.133Z,21.24
2023-12-20T01:13:30.192Z,21.22
2023-12-20T01:14:30.255Z,21.25
2023-12-20T01:15:30.296Z,21.25
2023-12-20T01:16:30.422Z,21.18
2023-12-20T01:17:30.471Z,21.27
2023-12-20T01:18:30.484Z,21.22
2023-12-20T01:19:30.662Z,21.30
2023-12-20T01:20:30.608Z,21.25
2023-12-20T01:21:30.688Z,21.29
2023-12-20T01:22:30.718Z,21.36
2023-12-20T01:23:30.781Z,21.35
2023-12-20T01:24:30.929Z,21.36
2023-12-20T01:25:30.933Z,21.33
2023-12-20T01:26:30.996Z,21.35
2023-12-20T01:27:31.027Z,21.37
2023-12-20T01:28:31.129Z,21.39
2023-12-20T01:29:31.175Z,21.36
2023-12-20T01:30:31.269Z,21.34
2023-12-20T01:31:31.332Z,21.36
2023-12-20T01:32:31.397Z,21.40
2023-12-20T01:33:31.469Z,21.42
2023-12-20T01:34:31.555Z,21.40
2023-12-20T01:35:31.568Z,21.43
2023-12-20T01:36:31.628Z,21.46
2023-12-20T01:37:31.682Z,21.46
2023-12-20T01:38:31.760Z,21.42
2023-12-20T01:39:31.810Z,21.42
2023-12-20T01:40:31.987Z,21.40
2023-12-20T01:41:31.995Z,21.51
2023-12-20T01:42:32.038Z,21.46
2023-12-20T01:43:35.561Z,21.46
2023-12-20T01:44:33.120Z,21.48
2023-12-20T01:45:32.132Z,21.52
2023-12-20T01:46:32.122Z,21.56
2023-12-20T01:47:32.140Z,21.48
2023-12-20T01:48:32.081Z,21.49
2023-12-20T01:49:32.141Z,21.51
2023-12-20T01:50:32.188Z,21.49
2023-12-20T01:51:32.092Z,21.46
2023-12-20T01:52:32.174Z,21.51
2023-12-20T01:53:32.178Z,21.51
2023-12-20T01:54:32.245Z,21.51
2023-12-20T01:55:32.319Z,21.51
2023-12-20T01:56:32.412Z,21.48
2023-12-20T01:57:32.473Z,21.53
2023-12-20T01:58:32.608Z,21.57
2023-12-20T01:59:32.590Z,21.56
2023-12-20T02:00:32.768Z,21.54
2023-12-20T02:01:32.812Z,21.55
2023-12-20T02:02:32.781Z,21.51
2023-12-20T02:03:32.929Z,21.57
2023-12-20T02:04:32.995Z,21.57
2023-12-20T02:05:33.062Z,21.60
2023-12-20T02:06:33.090Z,21.60
2023-12-20T02:07:33.158Z,21.64
2023-12-20T02:08:33.205Z,21.63
2023-12-20T02:09:33.261Z,21.61
2023-12-20T02:10:33.364Z,21.61
2023-12-20T02:11:33.430Z,21.58
2023-12-20T02:12:33.497Z,21.58
2023-12-20T02:13:33.577Z,21.67
2023-12-20T02:14:33.635Z,21.63
2023-12-20T02:15:33.697Z,21.63
2023-12-20T02:16:33.758Z,21.63
2023-12-20T02:17:33.854Z,21.62
2023-12-20T02:18:34.094Z,21.62
2023-12-20T02:19:34.046Z,21.67
2023-12-20T02:20:34.087Z,21.64
2023-12-20T02:21:34.101Z,21.62
2023-12-20T02:22:34.177Z,21.68
2023-12-20T02:23:34.259Z,21.69
2023-12-20T02:24:34.317Z,21.67
2023-12-20T02:25:34.367Z,21.64
2023-12-20T02:26:34.452Z,21.66
2023-12-20T02:27:34.565Z,21.69
2023-12-20T02:28:34.660Z,21.67
2023-12-20T02:29:34.663Z,21.66
2023-12-20T02:30:34.822Z,21.62
2023-12-20T02:31:34.815Z,21.61
2023-12-20T02:32:34.962Z,21.66
2023-12-20T02:33:34.943Z,21.67
2023-12-20T02:34:35.069Z,21.62
2023-12-20T02:35:35.086Z,21.61
2023-12-20T02:36:35.166Z,21.61
2023-12-20T02:37:35.230Z,21.59
2023-12-20T02:38:35.301Z,21.69
2023-12-20T02:39:35.364Z,21.61
2023-12-20T02:40:35.446Z,21.61
2023-12-20T02:41:35.509Z,21.64
2023-12-20T02:42:35.565Z,21.62
2023-12-20T02:43:35.629Z,21.59
2023-12-20T02:44:35.679Z,21.64
2023-12-20T02:45:35.754Z,21.67
2023-12-20T02:46:35.796Z,21.67
2023-12-20T02:47:35.945Z,21.69
2023-12-20T02:48:36.050Z,21.64
2023-12-20T02:49:36.157Z,21.62
2023-12-20T02:50:36.136Z,21.59
2023-12-20T02:51:36.149Z,21.62
2023-12-20T02:52:36.255Z,21.61
2023-12-20T02:53:36.310Z,21.62
2023-12-20T02:54:36.358Z,21.59
2023-12-20T02:55:36.473Z,21.62
2023-12-20T02:56:36.535Z,21.62
2023-12-20T02:57:36.590Z,21.61
2023-12-20T02:58:36.655Z,21.65
2023-12-20T02:59:36.742Z,21.62
2023-12-20T03:00:36.843Z,21.62
2023-12-20T03:01:37.002Z,21.58
2023-12-20T03:03:34.746Z,21.62
2023-12-20T03:04:34.863Z,21.64
2023-12-20T03:05:34.813Z,21.68
2023-12-20T03:06:34.712Z,21.62
2023-12-20T03:07:34.722Z,21.67
2023-12-20T03:08:34.724Z,21.65
2023-12-20T03:09:47.721Z,21.68
2023-12-20T03:10:35.791Z,21.65
2023-12-20T03:11:34.720Z,21.67
2023-12-20T03:12:34.729Z,21.61
2023-12-20T03:13:34.734Z,21.62
2023-12-20T03:14:34.710Z,21.64
2023-12-20T03:15:34.740Z,21.62
2023-12-20T03:16:36.903Z,21.67
2023-12-20T03:17:34.876Z,21.67
2023-12-20T03:18:34.899Z,21.58
2023-12-20T03:19:34.968Z,21.67
2023-12-20T03:20:35.027Z,21.62
2023-12-20T03:21:35.134Z,21.67
2023-12-20T03:22:35.128Z,21.62
2023-12-20T03:23:35.273Z,21.64
2023-12-20T03:24:35.288Z,21.61
2023-12-20T03:25:35.483Z,21.62
2023-12-20T03:26:35.469Z,21.65
2023-12-20T03:27:35.527Z,21.62
2023-12-20T03:28:35.654Z,21.64
2023-12-20T03:29:35.689Z,21.64
2023-12-20T03:30:35.799Z,21.64
2023-12-20T03:31:35.844Z,21.68
2023-12-20T03:32:35.959Z,21.62
2023-12-20T03:33:35.984Z,21.65
2023-12-20T03:34:36.193Z,21.68
2023-12-20T03:35:36.075Z,21.69
2023-12-20T03:36:36.119Z,21.65
2023-12-20T03:37:36.192Z,21.71
2023-12-20T03:38:36.301Z,21.75
2023-12-20T03:39:36.368Z,21.74
2023-12-20T03:40:36.425Z,21.69
2023-12-20T03:41:36.485Z,21.75
2023-12-20T03:42:36.558Z,21.74
2023-12-20T03:43:36.658Z,21.75
2023-12-20T03:44:36.716Z,21.72
2023-12-20T03:45:36.771Z,21.72
2023-12-20T03:46:36.844Z,21.75
2023-12-20T03:47:36.967Z,21.68
2023-12-20T03:48:36.996Z,21.74
2023-12-20T03:49:37.083Z,21.71
2023-12-20T03:50:37.099Z,21.71
2023-12-20T03:51:37.157Z,21.80
2023-12-20T03:52:37.264Z,21.77
2023-12-20T03:53:37.321Z,21.74
2023-12-20T03:54:37.405Z,21.80
2023-12-20T03:55:37.536Z,21.77
2023-12-20T03:56:37.620Z,21.81
2023-12-20T03:57:37.591Z,21.80
2023-12-20T03:58:37.670Z,21.80
2023-12-20T03:59:37.749Z,21.83
2023-12-20T04:00:37.862Z,21.80
2023-12-20T04:01:37.976Z,21.81
2023-12-20T04:02:37.958Z,21.81
2023-12-20T04:03:38.050Z,21.84
2023-12-20T04:04:38.180Z,21.83
2023-12-20T04:05:38.251Z,21.84
2023-12-20T04:06:38.292Z,21.83
2023-12-20T04:07:38.385Z,21.87
2023-12-20T04:08:38.342Z,21.87
2023-12-20T04:09:38.443Z,21.87
2023-12-20T04:10:38.538Z,21.90
2023-12-20T04:11:38.525Z,21.90
2023-12-20T04:12:38.682Z,21.93
2023-12-20T04:13:38.665Z,21.89
2023-12-20T04:14:38.730Z,21.90
2023-12-20T04:15:38.912Z,21.95
2023-12-20T04:16:38.854Z,21.92
2023-12-20T04:17:38.978Z,21.95
2023-12-20T04:18:39.028Z,21.95
2023-12-20T04:19:39.102Z,21.95
2023-12-20T04:20:39.102Z,21.98
2023-12-20T04:21:39.271Z,21.93
2023-12-20T04:22:39.200Z,21.96
2023-12-20T04:23:39.260Z,21.93
2023-12-20T04:24:39.390Z,21.95
2023-12-20T04:25:39.426Z,21.96
2023-12-20T04:26:39.460Z,21.95
2023-12-20T04:27:39.569Z,21.93
2023-12-20T04:28:39.636Z,21.95
2023-12-20T04:29:39.629Z,21.93
2023-12-20T04:30:39.859Z,21.98
2023-12-20T04:31:39.877Z,21.92
2023-12-20T04:32:47.244Z,21.99
2023-12-20T04:33:47.225Z,21.96
2023-12-20T04:34:47.224Z,21.99
2023-12-20T04:35:47.245Z,22.02
2023-12-20T04:36:47.204Z,22.01
2023-12-20T04:37:47.545Z,21.96
2023-12-20T04:38:47.190Z,21.95
2023-12-20T04:39:47.220Z,21.98
2023-12-20T04:40:47.217Z,21.95
2023-12-20T04:41:47.217Z,21.95
2023-12-20T04:42:47.221Z,21.96
2023-12-20T04:43:47.221Z,21.96
2023-12-20T04:44:47.241Z,21.93
2023-12-20T04:45:47.228Z,21.92
2023-12-20T04:46:47.235Z,21.93
2023-12-20T04:47:47.421Z,21.98
2023-12-20T04:48:47.313Z,21.98
2023-12-20T04:49:47.269Z,21.92
2023-12-20T04:50:47.208Z,21.99
2023-12-20T04:51:47.273Z,21.98
2023-12-20T04:52:47.253Z,21.93
2023-12-20T04:53:47.196Z,21.99
2023-12-20T04:54:47.291Z,21.98
2023-12-20T04:55:47.236Z,22.04
2023-12-20T04:56:47.268Z,22.01
2023-12-20T04:57:47.636Z,21.96
2023-12-20T04:58:47.389Z,21.99
2023-12-20T04:59:47.439Z,22.02
2023-12-20T05:00:47.570Z,22.04
2023-12-20T05:01:47.676Z,22.02
2023-12-20T05:02:47.548Z,22.02
2023-12-20T05:03:47.678Z,22.02
2023-12-20T05:04:47.752Z,22.04
2023-12-20T05:05:47.824Z,22.04
2023-12-20T05:06:47.915Z,22.00
2023-12-20T05:07:48.189Z,22.03
2023-12-20T05:08:47.943Z,22.06
2023-12-20T05:09:47.997Z,22.00
2023-12-20T05:10:48.060Z,22.02
2023-12-20T05:11:48.111Z,22.06
2023-12-20T05:12:48.212Z,21.99
2023-12-20T05:13:50.623Z,22.04
2023-12-20T05:14:48.229Z,22.02
2023-12-20T05:15:48.245Z,22.02
2023-12-20T05:16:48.229Z,22.05
2023-12-20T05:17:48.701Z,22.05
2023-12-20T05:18:48.262Z,22.04
2023-12-20T05:19:48.254Z,22.06
2023-12-20T05:20:48.225Z,22.03
2023-12-20T05:21:48.337Z,21.96
2023-12-20T05:22:48.236Z,22.02
2023-12-20T05:23:48.206Z,22.06
2023-12-20T05:24:48.299Z,21.96
2023-12-20T05:25:48.245Z,22.05
2023-12-20T05:26:50.087Z,22.05
2023-12-20T05:27:48.601Z,22.03
2023-12-20T05:28:48.259Z,22.09
2023-12-20T05:29:48.257Z,22.06
2023-12-20T05:30:48.349Z,22.09
2023-12-20T05:31:48.308Z,22.15
2023-12-20T05:32:48.323Z,22.12
2023-12-20T05:33:48.446Z,22.12
2023-12-20T05:34:48.294Z,22.12
2023-12-20T05:35:48.317Z,22.12
2023-12-20T05:36:48.294Z,22.12
2023-12-20T05:37:48.264Z,22.14
2023-12-20T05:38:48.246Z,22.12
2023-12-20T05:39:48.283Z,22.14
2023-12-20T05:40:48.293Z,22.11
2023-12-20T05:41:48.300Z,22.14
2023-12-20T05:42:48.283Z,22.11
2023-12-20T05:43:48.291Z,22.20
2023-12-20T05:44:50.026Z,22.12
2023-12-20T05:45:48.333Z,22.18
2023-12-20T05:46:48.316Z,22.22
2023-12-20T05:47:48.502Z,22.23
2023-12-20T05:48:48.378Z,22.22
2023-12-20T05:49:48.462Z,22.20
2023-12-20T05:50:48.301Z,22.22
2023-12-20T05:51:48.337Z,22.18
2023-12-20T05:52:48.336Z,22.21
2023-12-20T05:53:48.277Z,22.22
2023-12-20T05:54:48.311Z,22.20
2023-12-20T05:55:48.333Z,22.20
2023-12-20T05:56:48.325Z,22.22
2023-12-20T05:57:48.604Z,22.24
2023-12-20T05:58:48.341Z,22.20
2023-12-20T05:59:48.371Z,22.17
2023-12-20T06:01:10.990Z,22.20
2023-12-20T06:01:48.404Z,22.24
2023-12-20T06:02:48.314Z,22.24
2023-12-20T06:03:48.357Z,22.23
2023-12-20T06:04:48.369Z,22.23
2023-12-20T06:05:48.365Z,22.26
2023-12-20T06:06:48.387Z,22.21
2023-12-20T06:07:48.703Z,22.21
2023-12-20T06:08:48.353Z,22.27
2023-12-20T06:09:48.357Z,22.27
2023-12-20T06:10:48.361Z,22.36
2023-12-20T06:11:48.337Z,22.29
2023-12-20T06:12:48.620Z,22.27
2023-12-20T06:13:48.328Z,22.30
2023-12-20T06:14:48.315Z,22.35
2023-12-20T06:15:48.363Z,22.24
2023-12-20T06:16:48.386Z,22.33
2023-12-20T06:17:49.126Z,22.26
2023-12-20T06:18:48.468Z,22.30
2023-12-20T06:19:48.395Z,22.38
2023-12-20T06:20:48.354Z,22.29
2023-12-20T06:21:48.407Z,22.35
2023-12-20T06:22:48.368Z,22.38
2023-12-20T06:23:48.420Z,22.33
2023-12-20T06:24:48.391Z,22.27
2023-12-20T06:25:48.362Z,22.36
2023-12-20T06:26:48.421Z,22.27
2023-12-20T06:27:48.710Z,22.42
2023-12-20T06:28:48.409Z,22.35
2023-12-20T06:29:48.400Z,22.38
2023-12-20T06:30:48.451Z,22.38
2023-12-20T06:31:49.006Z,22.36
2023-12-20T06:32:48.413Z,22.39
2023-12-20T06:33:48.459Z,22.45
2023-12-20T06:34:48.756Z,22.50
2023-12-20T06:35:48.644Z,22.87
2023-12-20T06:36:48.956Z,23.67
2023-12-20T06:37:48.708Z,23.08
2023-12-20T06:38:48.531Z,23.28
2023-12-20T06:39:48.578Z,23.87
2023-12-20T06:40:48.566Z,23.59
2023-12-20T06:41:48.914Z,24.46
2023-12-20T06:42:58.617Z,25.36
2023-12-20T06:43:50.734Z,24.89
2023-12-20T06:44:48.672Z,25.79
2023-12-20T06:46:11.445Z,26.34
2023-12-20T06:46:48.716Z,26.14
2023-12-20T06:47:48.929Z,26.70
2023-12-20T06:48:48.845Z,26.47
2023-12-20T06:49:48.807Z,26.47
2023-12-20T06:50:48.728Z,26.58
2023-12-20T06:51:49.840Z,26.59
2023-12-20T06:52:49.314Z,26.46
2023-12-20T06:53:48.693Z,26.71
2023-12-20T06:54:48.721Z,26.63
2023-12-20T06:55:48.732Z,26.63
2023-12-20T06:56:48.764Z,26.85
2023-12-20T06:57:48.932Z,26.57
2023-12-20T06:58:48.811Z,26.72
2023-12-20T06:59:48.750Z,26.73
2023-12-20T07:00:48.846Z,27.24
2023-12-20T07:01:48.983Z,27.28
2023-12-20T07:02:48.759Z,27.33
2023-12-20T07:03:48.774Z,27.11
2023-12-20T07:04:48.841Z,27.78
2023-12-20T07:05:48.902Z,27.77
2023-12-20T07:06:49.502Z,27.58
2023-12-20T07:07:49.253Z,27.62
2023-12-20T07:08:49.073Z,27.61
2023-12-20T07:09:49.192Z,27.47
2023-12-20T07:10:49.159Z,27.00
2023-12-20T07:11:49.250Z,27.28
2023-12-20T07:12:49.327Z,27.98
2023-12-20T07:13:49.912Z,27.42
2023-12-20T07:14:49.386Z,27.97
2023-12-20T07:15:49.570Z,27.30
2023-12-20T07:16:49.466Z,27.55
2023-12-20T07:17:49.923Z,27.19
2023-12-20T07:18:49.613Z,27.27
2023-12-20T07:19:49.643Z,26.96
2023-12-20T07:20:50.429Z,27.65
2023-12-20T07:21:49.851Z,27.60
2023-12-20T07:22:49.760Z,27.34
2023-12-20T07:23:49.768Z,28.17
2023-12-20T07:24:49.877Z,28.02
2023-12-20T07:25:49.853Z,27.99
2023-12-20T07:26:49.913Z,28.04
2023-12-20T07:27:50.657Z,28.00
2023-12-20T07:28:49.961Z,28.29
2023-12-20T07:29:50.014Z,27.59
2023-12-20T07:30:50.124Z,28.09
2023-12-20T07:31:50.255Z,28.10
2023-12-20T07:32:50.487Z,28.15
2023-12-20T07:33:50.416Z,28.47
2023-12-20T07:34:50.315Z,28.02
2023-12-20T07:35:50.262Z,28.38
2023-12-20T07:36:50.474Z,28.04
2023-12-20T07:37:50.260Z,28.57
2023-12-20T07:38:50.243Z,28.89
2023-12-20T07:39:50.274Z,28.95
2023-12-20T07:40:50.316Z,27.48
2023-12-20T07:41:50.365Z,27.67
2023-12-20T07:42:50.457Z,28.02
2023-12-20T07:43:50.413Z,27.87
2023-12-20T07:44:50.418Z,26.93
2023-12-20T07:45:50.483Z,26.32
2023-12-20T07:46:50.517Z,25.78
2023-12-20T07:47:50.936Z,25.61
2023-12-20T07:48:50.681Z,25.27
2023-12-20T07:49:50.725Z,25.16
2023-12-20T07:50:50.745Z,24.76
2023-12-20T07:51:50.876Z,24.55
2023-12-20T07:52:50.817Z,24.77
2023-12-20T07:53:50.983Z,24.84
2023-12-20T07:54:51.014Z,24.97
2023-12-20T07:55:51.084Z,24.73
2023-12-20T07:56:51.837Z,24.84
2023-12-20T07:57:51.220Z,24.72
2023-12-20T07:58:53.138Z,24.55
2023-12-20T07:59:51.253Z,24.57
2023-12-20T08:00:51.315Z,24.41
2023-12-20T08:01:51.409Z,24.36
2023-12-20T08:02:51.280Z,24.48
2023-12-20T08:03:51.415Z,24.88
2023-12-20T08:04:51.306Z,24.77
2023-12-20T08:05:51.250Z,25.19
2023-12-20T08:06:51.300Z,25.31
2023-12-20T08:07:51.281Z,25.01
2023-12-20T08:08:58.215Z,25.01
2023-12-20T08:09:52.317Z,25.06
2023-12-20T08:10:51.273Z,25.18
2023-12-20T08:11:51.291Z,24.65
2023-12-20T08:12:51.344Z,24.59
2023-12-20T08:13:51.266Z,24.56
2023-12-20T08:14:51.278Z,24.58
2023-12-20T08:15:51.289Z,24.21
2023-12-20T08:16:51.249Z,24.55
2023-12-20T08:17:51.377Z,24.48
2023-12-20T08:18:51.401Z,24.31
2023-12-20T08:19:51.476Z,24.62
2023-12-20T08:20:51.342Z,25.03
2023-12-20T08:21:51.463Z,25.10
2023-12-20T08:22:51.470Z,24.95
2023-12-20T08:23:51.483Z,24.82
2023-12-20T08:24:51.560Z,24.85
2023-12-20T08:25:51.700Z,24.40
2023-12-20T08:26:51.688Z,24.79
2023-12-20T08:27:51.623Z,24.87
2023-12-20T08:28:51.699Z,24.59
2023-12-20T08:29:51.768Z,24.24
2023-12-20T08:30:51.846Z,24.07
2023-12-20T08:31:51.944Z,23.83
2023-12-20T08:32:51.817Z,23.69
2023-12-20T08:33:51.997Z,24.51
2023-12-20T08:34:51.928Z,24.50
2023-12-20T08:35:51.852Z,23.80
2023-12-20T08:36:51.967Z,23.89
2023-12-20T08:37:51.978Z,23.91
2023-12-20T08:38:52.028Z,23.96
2023-12-20T08:39:52.013Z,23.86
2023-12-20T08:40:52.044Z,23.91
2023-12-20T08:41:52.041Z,24.88
2023-12-20T08:42:52.536Z,24.72
2023-12-20T08:43:52.147Z,24.77
2023-12-20T08:44:52.146Z,24.76
2023-12-20T08:45:52.221Z,24.67
2023-12-20T08:46:52.239Z,24.25
2023-12-20T08:47:53.342Z,23.84
2023-12-20T08:48:52.528Z,23.39
2023-12-20T08:49:52.468Z,23.27
2023-12-20T08:50:52.495Z,23.20
2023-12-20T08:51:52.451Z,23.10
2023-12-20T08:52:52.526Z,22.86
2023-12-20T08:53:52.609Z,22.71
2023-12-20T08:54:52.658Z,22.69
2023-12-20T08:55:52.720Z,22.75
2023-12-20T08:56:52.692Z,22.78
2023-12-20T08:57:52.679Z,22.86
2023-12-20T08:58:52.672Z,22.92
2023-12-20T08:59:52.750Z,22.91
2023-12-20T09:00:52.734Z,22.85
2023-12-20T09:01:52.781Z,22.76
2023-12-20T09:02:52.742Z,22.84
2023-12-20T09:03:52.838Z,22.84
2023-12-20T09:04:52.926Z,22.89
2023-12-20T09:05:52.900Z,22.78
2023-12-20T09:06:52.988Z,22.73
2023-12-20T09:07:53.017Z,22.81
2023-12-20T09:08:52.945Z,22.96
2023-12-20T09:09:52.983Z,22.88
2023-12-20T09:10:53.241Z,22.80
2023-12-20T09:11:53.110Z,22.82
2023-12-20T09:12:53.113Z,22.83
2023-12-20T09:13:53.124Z,22.74
2023-12-20T09:14:53.174Z,22.72
2023-12-20T09:15:55.046Z,22.80
2023-12-20T09:16:53.278Z,22.86
2023-12-20T09:17:53.393Z,22.80
2023-12-20T09:18:53.453Z,22.84
2023-12-20T09:19:53.475Z,22.76
2023-12-20T09:20:53.515Z,22.76
2023-12-20T09:21:53.451Z,22.76
2023-12-20T09:22:53.519Z,22.63
2023-12-20T09:23:53.546Z,22.58
2023-12-20T09:24:53.623Z,22.60
2023-12-20T09:25:56.077Z,22.64
2023-12-20T09:26:54.508Z,22.76
2023-12-20T09:27:53.773Z,22.68
2023-12-20T09:28:53.696Z,22.64
2023-12-20T09:29:53.586Z,23.25
2023-12-20T09:30:53.690Z,24.11
2023-12-20T09:31:53.657Z,24.53
2023-12-20T09:32:54.068Z,25.80
2023-12-20T09:33:53.827Z,25.96
2023-12-20T09:34:53.774Z,26.20
2023-12-20T09:35:54.024Z,27.11
2023-12-20T09:36:53.681Z,27.01
2023-12-20T09:37:54.034Z,27.14
2023-12-20T09:38:53.621Z,27.49
2023-12-20T09:39:53.661Z,27.42
2023-12-20T09:40:53.624Z,27.52
2023-12-20T09:41:53.662Z,27.42
2023-12-20T09:42:53.694Z,27.64
2023-12-20T09:43:53.686Z,28.05
2023-12-20T09:44:53.733Z,28.11
2023-12-20T09:45:53.717Z,28.25
2023-12-20T09:46:53.689Z,28.51
2023-12-20T09:47:53.628Z,28.60
2023-12-20T09:48:54.063Z,28.67
2023-12-20T09:49:53.763Z,28.52
2023-12-20T09:50:54.250Z,28.65
2023-12-20T09:51:53.690Z,28.58
2023-12-20T09:52:53.671Z,28.50
2023-12-20T09:53:53.663Z,28.44
2023-12-20T09:54:53.703Z,28.34
2023-12-20T09:55:53.689Z,28.45
2023-12-20T09:56:53.651Z,28.29
2023-12-20T09:57:53.693Z,28.18
2023-12-20T09:58:53.657Z,28.31
2023-12-20T09:59:54.385Z,28.31
2023-12-20T10:00:53.720Z,28.58
2023-12-20T10:01:55.918Z,28.30
2023-12-20T10:02:53.621Z,28.29
2023-12-20T10:03:53.787Z,28.16
2023-12-20T10:04:53.714Z,28.20
2023-12-20T10:05:53.910Z,28.12
2023-12-20T10:06:54.493Z,28.00
2023-12-20T10:07:53.719Z,27.97
2023-12-20T10:08:53.660Z,28.14
2023-12-20T10:09:53.702Z,27.87
2023-12-20T10:10:53.731Z,27.90
2023-12-20T10:11:53.653Z,27.82
2023-12-20T10:12:53.679Z,27.99
2023-12-20T10:13:53.669Z,27.92
2023-12-20T10:14:53.662Z,27.85
2023-12-20T10:15:53.734Z,27.82
2023-12-20T10:16:53.628Z,27.71
2023-12-20T10:17:54.951Z,28.03
2023-12-20T10:18:54.094Z,27.84
2023-12-20T10:19:53.782Z,27.58
2023-12-20T10:20:53.782Z,27.80
2023-12-20T10:21:53.724Z,27.69
2023-12-20T10:22:53.656Z,27.70
2023-12-20T10:23:54.033Z,27.65
2023-12-20T10:24:53.710Z,27.69
2023-12-20T10:25:53.673Z,27.62
2023-12-20T10:26:53.698Z,27.58
2023-12-20T10:27:54.029Z,27.47
2023-12-20T10:28:53.683Z,27.53
2023-12-20T10:29:53.684Z,27.47
2023-12-20T10:30:53.788Z,27.57
2023-12-20T10:31:53.785Z,27.49
2023-12-20T10:32:53.711Z,27.38
2023-12-20T10:33:54.114Z,27.28
2023-12-20T10:34:53.842Z,27.18
2023-12-20T10:35:53.722Z,27.24
2023-12-20T10:36:53.775Z,27.20
2023-12-20T10:37:53.720Z,27.07
2023-12-20T10:38:53.732Z,26.99
2023-12-20T10:39:53.835Z,27.06
2023-12-20T10:40:53.745Z,26.99
2023-12-20T10:41:53.744Z,26.50
2023-12-20T10:42:53.796Z,26.30
2023-12-20T10:43:53.990Z,26.46
2023-12-20T10:44:53.765Z,26.85
2023-12-20T10:45:53.726Z,26.52
2023-12-20T10:46:53.793Z,26.75
2023-12-20T10:47:53.752Z,27.00
2023-12-20T10:48:53.854Z,27.15
2023-12-20T10:49:53.973Z,27.12
2023-12-20T10:50:53.852Z,27.25
2023-12-20T10:51:53.905Z,27.25
2023-12-20T10:52:53.935Z,27.31
2023-12-20T10:53:54.041Z,27.34
2023-12-20T10:54:54.057Z,27.31
2023-12-20T10:55:55.020Z,27.17
2023-12-20T10:56:54.103Z,27.20
2023-12-20T10:57:54.134Z,27.26
2023-12-20T10:58:54.522Z,27.19
2023-12-20T10:59:54.995Z,27.12
2023-12-20T11:00:54.229Z,27.04
2023-12-20T11:01:54.313Z,27.11
2023-12-20T11:02:54.349Z,27.01
2023-12-20T11:03:54.387Z,26.95
2023-12-20T11:04:54.595Z,26.95
2023-12-20T11:05:54.538Z,26.96
2023-12-20T11:06:54.550Z,26.52
2023-12-20T11:07:54.474Z,26.64
2023-12-20T11:08:54.442Z,26.64
2023-12-20T11:09:54.600Z,26.56
2023-12-20T11:10:54.584Z,26.65
2023-12-20T11:11:54.576Z,26.79
2023-12-20T11:12:54.592Z,26.76
2023-12-20T11:13:54.596Z,26.80
2023-12-20T11:14:54.660Z,26.76
2023-12-20T11:15:54.705Z,26.41
2023-12-20T11:16:55.733Z,26.68
2023-12-20T11:17:54.952Z,26.83
2023-12-20T11:18:54.842Z,26.78
2023-12-20T11:19:55.058Z,26.85
2023-12-20T11:20:54.827Z,26.79
2023-12-20T11:21:54.884Z,26.83
2023-12-20T11:22:54.903Z,26.81
2023-12-20T11:23:54.857Z,26.84
2023-12-20T11:24:54.925Z,26.73
2023-12-20T11:25:54.868Z,26.70
2023-12-20T11:26:54.881Z,26.59
2023-12-20T11:27:55.241Z,26.55
2023-12-20T11:28:55.051Z,26.70
2023-12-20T11:29:54.891Z,26.66
2023-12-20T11:30:55.289Z,26.56
2023-12-20T11:31:54.924Z,26.71
2023-12-20T11:32:54.960Z,26.66
2023-12-20T11:33:55.061Z,26.58
2023-12-20T11:34:55.036Z,26.61
2023-12-20T11:35:54.994Z,26.58
2023-12-20T11:36:54.980Z,26.43
2023-12-20T11:37:54.955Z,26.58
2023-12-20T11:38:54.964Z,26.59
2023-12-20T11:39:55.131Z,26.59
2023-12-20T11:40:54.960Z,26.58
2023-12-20T11:41:54.993Z,26.50
2023-12-20T11:42:55.019Z,26.54
2023-12-20T11:43:55.000Z,26.71
2023-12-20T11:44:55.012Z,26.64
2023-12-20T11:45:55.077Z,26.68
2023-12-20T11:46:55.022Z,26.61
2023-12-20T11:47:55.098Z,26.72
2023-12-20T11:48:55.149Z,26.81
2023-12-20T11:49:55.626Z,26.66
2023-12-20T11:50:55.554Z,26.23
2023-12-20T11:51:55.078Z,26.50
2023-12-20T11:52:55.062Z,26.37
2023-12-20T11:53:55.067Z,26.55
2023-12-20T11:54:55.047Z,26.16
2023-12-20T11:55:55.103Z,26.85
2023-12-20T11:56:55.124Z,26.55
2023-12-20T11:57:55.221Z,26.75
2023-12-20T11:58:58.718Z,26.82
2023-12-20T11:59:56.134Z,26.92
2023-12-20T12:00:55.227Z,27.22
2023-12-20T12:01:55.224Z,27.17
2023-12-20T12:02:55.452Z,27.29
2023-12-20T12:03:55.276Z,27.43
2023-12-20T12:04:55.704Z,27.50
2023-12-20T12:05:55.214Z,27.50
2023-12-20T12:06:55.350Z,27.52
2023-12-20T12:07:55.168Z,27.46
2023-12-20T12:08:55.164Z,27.63
2023-12-20T12:09:55.301Z,27.68
2023-12-20T12:10:55.178Z,27.80
2023-12-20T12:11:55.249Z,27.72
2023-12-20T12:12:55.225Z,27.78
2023-12-20T12:13:55.216Z,27.78
2023-12-20T12:14:55.570Z,27.78
2023-12-20T12:15:55.265Z,27.85
2023-12-20T12:16:55.229Z,27.87
2023-12-20T12:17:55.373Z,28.03
2023-12-20T12:18:55.336Z,27.63
2023-12-20T12:19:55.443Z,27.95
2023-12-20T12:20:55.442Z,28.06
2023-12-20T12:21:55.492Z,28.09
2023-12-20T12:22:56.138Z,27.92
2023-12-20T12:23:55.573Z,28.09
2023-12-20T12:24:55.715Z,28.02
2023-12-20T12:25:55.749Z,28.05
2023-12-20T12:26:55.797Z,28.12
2023-12-20T12:27:55.903Z,28.58
2023-12-20T12:28:55.951Z,28.09
2023-12-20T12:29:56.071Z,28.07
2023-12-20T12:30:56.455Z,28.27
2023-12-20T12:31:56.243Z,28.12
2023-12-20T12:32:56.328Z,27.70
2023-12-20T12:33:56.441Z,27.46
2023-12-20T12:34:56.610Z,27.37
2023-12-20T12:35:56.382Z,27.34
2023-12-20T12:36:56.502Z,27.13
2023-12-20T12:37:56.655Z,27.14
2023-12-20T12:38:56.652Z,26.99
2023-12-20T12:39:57.082Z,26.78
2023-12-20T12:40:56.664Z,26.38
2023-12-20T12:41:56.681Z,26.68
2023-12-20T12:42:56.685Z,26.99
2023-12-20T12:43:59.319Z,26.74
2023-12-20T12:44:57.712Z,26.75
2023-12-20T12:45:56.770Z,26.44
2023-12-20T12:46:56.708Z,26.24
2023-12-20T12:47:56.778Z,26.30
2023-12-20T12:48:56.779Z,26.18
2023-12-20T12:49:56.755Z,25.81
2023-12-20T12:50:56.689Z,25.49
2023-12-20T12:51:56.734Z,25.22
2023-12-20T12:52:56.703Z,25.18
2023-12-20T12:53:57.574Z,25.09